AirNav   TITAN Aviation Fuels
 
 438 users online  

C97 Lowell Airport
Lowell, Indiana, USA

GOING TO LOWELL?


FAA INFORMATION EFFECTIVE 15 JULY 2021

Location

FAA Identifier: C97
Lat/Long: 41-13-48.6100N 087-30-27.7000W
41-13.810167N 087-30.461667W
41.2301694,-87.5076944
(estimated)
Elevation: 671.8 ft. / 205 m (estimated)
Variation: 01W (1985)
From city: 5 miles SW of LOWELL, IN
Time zone: UTC -5 (UTC -6 during Standard Time)
Zip code: 46356

Airport Operations

Airport use: Open to the public
Activation date: 08/1980
Control tower: no
ARTCC: CHICAGO CENTER
FSS: TERRE HAUTE FLIGHT SERVICE STATION
NOTAMs facility: HUF (NOTAM-D service available)
Attendance: IREG
Wind indicator: yes
Segmented circle: yes
Landing fee: yes

Airport Communications

CTAF: 122.9
WX AWOS-AV at C56 (12 nm NW): 119.125 (708-534-5256)
WX AWOS-3 at IKK (18 nm SW): 128.475 (815-939-4044)
WX AWOS-3 at IGQ (18 nm N): 119.275 (708-895-9526)
  • APCH/DEP SVC PRVDD BY CHICAGO ARTCC (ZAU) ON FREQS 132.95/284.7 (KANKAKEE RCAG).

Nearby radio navigation aids

VOR radial/distance  VOR name  Freq  Var
EONr098/13.0PEOTONE VORTAC113.2002E
CGTr168/17.0CHICAGO HEIGHTS VORTAC114.2002E
OXIr262/39.1KNOX VOR/DME115.6000E

Airport Services

Fuel available: 100LL
Parking: hangars and tiedowns
Airframe service: MAJOR
Powerplant service: MAJOR

Runway Information

Runway 18/36

Dimensions: 3041 x 100 ft. / 927 x 30 m
Surface: turf, in good condition
Runway edge markings: WHITE BARREL HALVES & LGT FIXTURES.
Operational restrictions: CROPS 75 FT E & 87 FT W OF CNTRLN.
RUNWAY 18  RUNWAY 36
Latitude: 41-14.060500N41-13.559833N
Longitude: 087-30.462000W087-30.461333W
Elevation: 671.8 ft.650.0 ft.
Traffic pattern: rightleft
Runway heading: 181 magnetic, 180 true001 magnetic, 360 true
Displaced threshold: 775 ft.no
Markings: NSTD, in fair conditionNSTD, in fair condition
Touchdown point: yes, no lightsyes, no lights
Obstructions: 10 ft. crops
APCH SLOPE 15:1 FM DSPLCD THR; 65 FT TREE 985 FT & 110 FT R.
10 ft. crops

Airport Ownership and Management from official FAA records

Ownership: Privately-owned
Owner: DONALD E. BAILEY
14705 BELSHAW RD.
LOWELL, IN 46356
Phone (219) 614-6633
Manager: KEVIN BAILEY
14705 BELSHAW RD
LOWELL, IN 46356
Phone (219) 614-6633

Airport Operational Statistics

Aircraft based on the field: 11
Single engine airplanes: 11
    
Aircraft operations: avg 37/week *
95% local general aviation
5% transient general aviation
* for 12-month period ending 31 December 2019

Additional Remarks

SNOW REMOVAL & MOWING WITH LARGE TRACTOR .
DEER ON & INVOF ARPT.
CALL FOR FUEL OR SVC BFR ARR - 219-613-4588.
FOR CD CTC CHICAGO ARTCC AT 630-906-8921.

Instrument Procedures

There are no published instrument procedures at C97.

Some nearby airports with instrument procedures:

C56 - Bult Field Airport (12 nm NW)
KIKK - Greater Kankakee Airport (18 nm SW)
05C - Griffith-Merrillville Airport (18 nm N)
KIGQ - Lansing Municipal Airport (18 nm N)
3HO - Hobart Sky Ranch Airport (22 nm NE)
 
Loc | Ops | Rwys | IFR | FBO | Links
Com | Nav | Svcs | Stats | Notes
Area around C97 (Lowell Airport)
 
Road maps at: MapQuest Bing Google
 
Aerial photo
WARNING: Photo may not be current or correct
Aerial photo of C97 (Lowell Airport)
Photo by Arthur Urban
Photo taken 22-Aug-2015

Do you have a better or more recent aerial photo of Lowell Airport that you would like to share? If so, please send us your photo.

 
Sectional chart

 
Airport distance calculator
Flying to Lowell Airport? Find the distance to fly.

From to C97

Sunrise and sunset
Times for 24-Jul-2021
 Local
(UTC-5)
 Zulu
(UTC)
Morning civil twilight05:0710:07
Sunrise05:3910:39
Sunset20:1401:14
Evening civil twilight20:4601:46

Current date and time
Zulu (UTC)  24-Jul-2021 07:53:30
Local (UTC-5)  24-Jul-2021 02:53:30
 
METAR
KIGQ 
18nm N 
240735Z AUTO 21006KT 5SM BR CLR 23/22 A3000 RMK AO2 T02270222
KIKK 
18nm SW 
240735Z AUTO 21003KT 5SM CLR 22/22 A3002 RMK AO2 PWINO
KRZL 
22nm SE 
240735Z AUTO 19004KT 4SM BR CLR 22/21 A3003 RMK AO2
KGYY 
24nm N 
240735Z AUTO 19003KT 7SM CLR 24/22 A3000 RMK AO2 T02440216
KVPZ 
26nm NE 
240656Z AUTO 21005KT 4SM BR CLR 23/21 A3002 RMK AO2 SLP157 T02280211 $
KJOT 
34nm NW 
240735Z AUTO 00000KT 5SM BR SCT050 24/22 A2999 RMK AO2 T02370222
KMDW 
35nm N 
240653Z 22009KT 9SM CLR 26/20 A2997 RMK AO2 SLP138 T02560200
KLOT 
35nm NW 
240735Z AUTO 21006KT 7SM SCT050 23/22 A2999 RMK AO2 T02320222
TAF
KGYY 
24nm N 
240531Z 2406/2506 19006KT 6SM HZ FEW045 SCT250 TEMPO 2410/2413 5SM HZ FM241400 22012G22KT P6SM BKN050 BKN200 TEMPO 2422/2502 31020G35KT 3SM TSRA OVC035CB FM250200 25006KT P6SM FEW030 BKN045
NOTAMs
Click for the latest NOTAMs
NOTAMs are issued by the DoD/FAA and will open in a separate window not controlled by AirNav.

 

 
 

FBO, Fuel Providers, and Aircraft Ground Support

  
 Business Name 
 
 Contact 
 
 Services / Description 
 
Fuel Prices
 
Comments
  
Lowell Aviation 219-696-9603
no information available

If you are affiliated with Lowell Aviation and would like to show here your services, contact info, web link, logo, and more, click here
100LL
RA $4.85 
 Updated 15-Aug-2018
 
   write
RA=Restricted
Update Fuel Prices
 

Would you like to see your business listed on this page?

 If your business provides an interesting product or service to pilots, flight crews, aircraft, or users of the Lowell Airport, you should consider listing it here.  To start the listing process, click on the button below
 
Add a business
 

Other Pages about Lowell Airport

Update a link
 
Copyright © AirNav, LLC. All rights reserved. Privacy Policy  Contact